TimeAKDT,TemperatureF,Dew PointF,Humidity,Sea Level PressureIn,VisibilityMPH,Wind Direction,Wind SpeedMPH,Gust SpeedMPH,PrecipitationIn,Events,Conditions,WindDirDegrees,DateUTC
12:16 AM,53.6,46.4,77,30.23,10.0,Calm,Calm,-,N/A,,Overcast,0,2013-07-05 08:16:00
12:36 AM,53.6,44.6,72,30.23,10.0,Calm,Calm,-,N/A,,Overcast,0,2013-07-05 08:36:00
12:56 AM,53.6,44.6,72,30.23,10.0,WSW,5.8,-,N/A,,Overcast,240,2013-07-05 08:56:00
1:36 AM,53.6,46.4,77,30.24,10.0,Calm,Calm,-,N/A,,Overcast,0,2013-07-05 09:36:00
2:16 AM,53.6,46.4,77,30.24,10.0,SW,3.5,-,N/A,,Overcast,230,2013-07-05 10:16:00
3:36 AM,51.8,44.6,76,30.23,10.0,Calm,Calm,-,N/A,,Overcast,0,2013-07-05 11:36:00
5:56 AM,51.8,46.4,82,30.23,10.0,East,3.5,-,N/A,,Mostly Cloudy,100,2013-07-05 13:56:00
6:16 AM,53.6,46.4,77,30.23,10.0,Calm,Calm,-,N/A,,Mostly Cloudy,0,2013-07-05 14:16:00
7:16 AM,53.6,46.4,77,30.23,10.0,East,3.5,-,N/A,,Mostly Cloudy,90,2013-07-05 15:16:00
8:36 AM,55.4,46.4,72,30.23,10.0,ENE,4.6,-,N/A,,Overcast,70,2013-07-05 16:36:00
8:56 AM,55.4,46.4,72,30.23,10.0,ENE,4.6,-,N/A,,Mostly Cloudy,70,2013-07-05 16:56:00
9:36 AM,57.2,46.4,67,30.23,10.0,ENE,3.5,-,N/A,,Mostly Cloudy,70,2013-07-05 17:36:00
9:56 AM,57.2,48.2,72,30.23,10.0,East,6.9,-,N/A,,Mostly Cloudy,80,2013-07-05 17:56:00
10:16 AM,59.0,48.2,67,30.23,10.0,East,4.6,-,N/A,,Mostly Cloudy,80,2013-07-05 18:16:00
10:36 AM,59.0,46.4,63,30.23,10.0,East,9.2,-,N/A,,Mostly Cloudy,80,2013-07-05 18:36:00
12:00 PM,59.0,46.4,63,30.22,10.0,NE,6.9,-,N/A,,Mostly Cloudy,40,2013-07-05 20:00:00
12:16 PM,57.2,46.4,67,30.22,10.0,ENE,5.8,-,N/A,,Mostly Cloudy,70,2013-07-05 20:16:00
1:56 PM,57.2,46.4,67,30.23,10.0,East,6.9,-,N/A,,Overcast,90,2013-07-05 21:56:00
2:16 PM,57.2,48.2,72,30.23,10.0,East,10.4,-,N/A,,Overcast,80,2013-07-05 22:16:00
2:56 PM,59.0,46.4,63,30.22,10.0,ENE,5.8,-,N/A,,Mostly Cloudy,60,2013-07-05 22:56:00
3:36 PM,60.8,48.2,63,30.21,10.0,ENE,8.1,-,N/A,,Mostly Cloudy,60,2013-07-05 23:36:00
5:47 PM,60.8,46.4,59,30.19,10.0,NE,4.6,-,N/A,,Mostly Cloudy,50,2013-07-06 01:47:00
6:47 PM,57.2,46.4,67,30.19,10.0,ENE,5.8,-,N/A,,Mostly Cloudy,70,2013-07-06 02:47:00
7:47 PM,59.0,46.4,63,30.19,10.0,Calm,Calm,-,N/A,,Mostly Cloudy,0,2013-07-06 03:47:00
8:16 PM,57.2,46.4,67,30.19,10.0,NE,5.8,-,N/A,,Mostly Cloudy,50,2013-07-06 04:16:00
8:56 PM,57.2,46.4,67,30.19,10.0,East,4.6,-,N/A,,Mostly Cloudy,80,2013-07-06 04:56:00
9:16 PM,57.2,46.4,67,30.19,10.0,Calm,Calm,-,N/A,,Mostly Cloudy,0,2013-07-06 05:16:00
10:16 PM,55.4,46.4,72,30.19,10.0,East,5.8,-,N/A,,Overcast,100,2013-07-06 06:16:00
11:36 PM,55.4,46.4,72,30.19,10.0,ESE,3.5,-,N/A,,Overcast,110,2013-07-06 07:36:00